• Join FlightAware (Why Join?)
  • Login
  • US Flag 
06:33PM EST


 

Airport Tracker/Info


-or-


 

Live Flight TrackerFlight Track Log ✈ SWA2853 ✈ 27-Feb-2014 ✈ KMCO - KEYW

Flight Track Log - Related Links

Times and Time Zones

All times are in EST time to prevent confusion due to time zone crossing. See the SWA2853 flight status page for this flight to view local times or setup timezone preferences in your user account.

Time Position Orientation Groundspeed Altitude Reporting Facility
EST Latitude Longitude Course Direction KTS MPH feet Rate Location/Type
11:19AM 28.4333 -81.3167 360° North 147 169 700  Level Orlando TRACON
11:20AM 28.5000 -81.3167 360° North 212 244 3,200 2,132 Climbing Orlando TRACON
11:21AM 28.5500 -81.3167 360° North 255 293 5,000 2,474 Climbing Orlando TRACON
11:22AM 28.6000 -81.3667 319° Northwest 247 284 7,900 3,048 Climbing Orlando TRACON
11:23AM 28.5333 -81.4167 213° Southwest 275 316 11,400 3,273 Climbing Orlando TRACON
11:24AM 28.4667 -81.4667 213° Southwest 310 357 14,500 1,937 Climbing Orlando TRACON
11:26AM 28.3372 -81.5336 204° Southwest 331 381 16,500 1,988 Climbing Miami Center
11:27AM 28.2281 -81.5503 188° South 345 397 19,900 3,100 Climbing Miami Center
11:28AM 28.1261 -81.5486 179° South 358 412 22,700 1,650 Climbing Miami Center
11:29AM 28.0239 -81.5467 179° South 369 425 23,200 1,400 Climbing Miami Center
11:30AM 27.9217 -81.5447 179° South 369 425 25,500 1,400 Climbing Miami Center
11:31AM 27.8175 -81.5428 179° South 369 425 26,000 250 Climbing Miami Center
11:32AM 27.7150 -81.5433 180° South 362 417 26,000  Level Miami Center
11:33AM 27.6128 -81.5414 179° South 367 422 26,000  Level Miami Center
11:34AM 27.5189 -81.5400 179° South 367 422 26,000  Level Miami Center
11:35AM 27.4064 -81.5378 179° South 367 422 26,000  Level Miami Center
11:36AM 27.3019 -81.5381 180° South 367 422 26,000  Level Miami Center
11:37AM 27.1978 -81.5361 179° South 367 422 26,000  Level Miami Center
11:38AM 27.1039 -81.5347 179° South 372 428 26,000  Level Miami Center
11:39AM 26.9975 -81.5328 179° South 378 435 26,000  Level Miami Center
11:40AM 26.8847 -81.5353 181° South 383 441 26,000  Level Miami Center
11:41AM 26.7839 -81.5475 186° South 383 441 26,000  Level Miami Center
11:43AM 26.5869 -81.5767 188° South 373 429 26,000  Level Miami Center
11:44AM 26.4861 -81.5914 187° South 373 429 26,000  Level Miami Center
11:45AM 26.3814 -81.6056 187° South 373 429 26,000  Level Miami Center
11:46AM 26.2806 -81.6203 187° South 373 429 26,000  Level Miami Center
11:47AM 26.1756 -81.6367 188° South 373 429 26,000 -100 Level Miami Center
11:48AM 26.0731 -81.6489 186° South 373 429 25,800 -650 Descending Miami Center
11:49AM 25.9722 -81.6656 188° South 373 429 24,700 -900 Descending Miami Center
11:50AM 25.8800 -81.6781 187° South 358 412 24,000 -1,300 Descending Miami Center
11:51AM 25.7856 -81.6928 188° South 352 405 22,100 -1,850 Descending Miami Center
11:52AM 25.6933 -81.7028 186° South 346 398 20,300 -1,800 Descending Miami Center
11:53AM 25.6008 -81.7175 188° South 346 398 18,500 -1,600 Descending Miami Center
11:54AM 25.5128 -81.7300 187° South 335 386 17,100 -1,500 Descending Miami Center
11:55AM 25.4289 -81.7406 186° South 324 373 15,500 -1,700 Descending Miami Center
11:56AM 25.3408 -81.7531 187° South 319 367 13,700 -1,800 Descending Miami Center
11:57AM 25.2567 -81.7658 188° South 314 361 11,900 -1,600 Descending Miami Center
11:58AM 25.1728 -81.7783 188° South 314 361 10,500 -950 Descending Miami Center
11:59AM 25.0933 -81.7867 185° South 302 348 10,000 -250 Descending Miami Center
12:00PM 25.0178 -81.7975 187° South 292 336 10,000 -900 Level Miami Center
12:01PM 24.9461 -81.7511 150° Southeast 277 319 8,200 -1,500 Descending Miami Center
12:02PM 24.8833 -81.6958 141° Southeast 283 326 7,000 -1,400 Descending Miami Center
12:03PM 24.8244 -81.6456 142° Southeast 278 320 5,400 -1,400 Descending Miami Center
12:04PM 24.7606 -81.6156 157° South 266 306 4,200 -1,150 Descending Miami Center
12:05PM 24.6947 -81.5856 158° South 261 300 3,100 -900 Descending Miami Center
12:06PM 24.6283 -81.5672 166° South 246 283 2,400 -750 Descending Miami Center
12:07PM 24.5653 -81.5831 193° South 215 247 1,600 -450 Descending Miami Center
12:08PM 24.5533 -81.6306 255° West 160 184 1,500 -100 Descending Miami Center
12:10PM 24.5500 -81.7500 248° West  Level FlightAware Approximate
12:17PM 24.5561 -81.7596 248° West  Level Estimated
12:18PM 24.5561 -81.7596 248° West  Level Estimated
12:19PM 24.5561 -81.7596 248° West  Level Estimated